Time;durP1;ratioP1;P1;durP2;ratioP2;P2;SDS_P1;SDS_P2;PMS_P1;PMS_P2;Temp;Humidity;BMP_temperature;BMP_pressure;BME280_temperature;BME280_humidity;BME280_pressure;Samples;Min_cycle;Max_cycle;Signal;HPM_P1;HPM_P2
2021/07/25 00:00:56;;;;;;;23.97;10.00;;;;;;;20.25;53.83;98834.59;125505;1096;103002;-78
2021/07/25 00:03:24;;;;;;;19.23;9.47;;;;;;;20.21;53.86;98834.10;125433;1096;103101;-78
2021/07/25 00:05:54;;;;;;;19.63;9.53;;;;;;;20.19;54.56;98833.44;125416;1095;102940;-78
2021/07/25 00:08:22;;;;;;;20.27;10.47;;;;;;;20.17;54.19;98831.95;125496;1096;103001;-77
2021/07/25 00:10:51;;;;;;;19.07;9.30;;;;;;;20.12;54.26;98837.91;125461;1095;102948;-78
2021/07/25 00:13:20;;;;;;;18.73;9.20;;;;;;;20.10;54.59;98833.68;125482;1095;102922;-78
2021/07/25 00:15:48;;;;;;;22.60;9.17;;;;;;;20.07;54.50;98829.50;125463;1096;103103;-79
2021/07/25 00:18:36;;;;;;;19.40;9.83;;;;;;;20.03;54.60;98828.99;125435;1096;103004;-78
2021/07/25 00:21:05;;;;;;;19.20;8.90;;;;;;;20.00;54.50;98828.52;125460;1096;103011;-79
2021/07/25 00:23:36;;;;;;;16.73;9.20;;;;;;;19.98;54.68;98827.86;125413;1096;102926;-77
2021/07/25 00:26:06;;;;;;;23.03;9.57;;;;;;;19.96;54.88;98832.59;125499;1096;103035;-79
2021/07/25 00:28:35;;;;;;;19.70;10.30;;;;;;;19.93;54.94;98833.80;125407;1096;103117;-78
2021/07/25 00:31:08;;;;;;;19.03;9.10;;;;;;;19.90;54.97;98829.59;125392;1096;103036;-78
2021/07/25 00:33:37;;;;;;;;;;;;;;;19.84;55.09;98832.13;126032;1095;102925;-79
2021/07/25 00:36:06;;;;;;;19.50;9.27;;;;;;;19.79;54.87;98828.11;125459;1096;102919;-78
2021/07/25 00:38:36;;;;;;;17.57;9.30;;;;;;;19.78;55.08;98830.97;125444;1097;103016;-77
2021/07/25 00:41:16;;;;;;;19.10;9.90;;;;;;;19.76;54.85;98825.76;125471;1095;102942;-77
2021/07/25 00:43:46;;;;;;;19.47;10.20;;;;;;;19.72;55.30;98820.91;125449;1096;103012;-78
2021/07/25 00:46:16;;;;;;;19.60;9.30;;;;;;;19.68;55.06;98823.09;125484;1096;102942;-77
2021/07/25 00:48:46;;;;;;;21.60;9.90;;;;;;;19.62;55.45;98821.10;125438;1096;102926;-78
2021/07/25 00:51:15;;;;;;;21.47;9.67;;;;;;;19.55;55.10;98822.84;125462;1096;102932;-80
2021/07/25 00:53:44;;;;;;;18.10;9.23;;;;;;;19.50;55.84;98823.36;125481;1096;103472;-77
2021/07/25 00:56:13;;;;;;;20.30;10.03;;;;;;;19.45;55.80;98821.20;125418;1096;103204;-78
2021/07/25 00:58:43;;;;;;;21.00;10.43;;;;;;;19.41;55.84;98825.26;125447;1096;102942;-79
2021/07/25 01:01:13;;;;;;;19.67;9.30;;;;;;;19.38;55.54;98822.05;125417;1096;103302;-79
2021/07/25 01:04:07;;;;;;;19.63;10.10;;;;;;;19.35;55.87;98820.56;125491;1096;102922;-77
2021/07/25 01:06:57;;;;;;;19.30;9.48;;;;;;;19.34;55.72;98825.13;125389;1096;103036;-79
2021/07/25 01:09:31;;;;;;;19.87;9.90;;;;;;;19.35;56.18;98828.65;125384;1096;103073;-79
2021/07/25 01:12:05;;;;;;;20.60;9.47;;;;;;;19.34;55.90;98827.83;125492;1095;103015;-79
2021/07/25 01:14:39;;;;;;;17.33;9.30;;;;;;;19.30;56.19;98820.23;125428;1096;103101;-77
2021/07/25 01:17:22;;;;;;;21.17;9.77;;;;;;;19.30;55.93;98823.80;125490;1096;102945;-78
2021/07/25 01:19:51;;;;;;;;;;;;;;;19.28;56.80;98824.96;125547;1096;103092;-79
2021/07/25 01:22:19;;;;;;;18.13;9.23;;;;;;;19.27;56.19;98821.44;125478;1096;103050;-79
2021/07/25 01:24:48;;;;;;;19.87;9.57;;;;;;;19.26;56.07;98818.91;125479;1097;103411;-79
2021/07/25 01:28:05;;;;;;;20.83;9.60;;;;;;;19.23;56.53;98817.41;125415;1098;103004;-79
2021/07/25 01:30:37;;;;;;;18.30;8.87;;;;;;;19.17;56.36;98823.48;124847;1100;103260;-76
2021/07/25 01:33:11;;;;;;;19.33;9.57;;;;;;;19.14;56.73;98819.30;124696;1100;103236;-76
2021/07/25 01:35:42;;;;;;;19.73;9.20;;;;;;;19.11;56.68;98811.55;125129;1096;103067;-76
2021/07/25 01:38:11;;;;;;;18.20;9.47;;;;;;;19.11;56.41;98813.39;125482;1096;102922;-77
2021/07/25 01:40:39;;;;;;;20.20;10.10;;;;;;;19.08;56.79;98811.90;125437;1096;103068;-77
2021/07/25 01:43:13;;;;;;;18.13;8.47;;;;;;;19.09;56.68;98813.58;125442;1096;103093;-78
2021/07/25 01:45:42;;;;;;;18.63;9.17;;;;;;;19.04;56.98;98813.25;125498;1096;103009;-78
2021/07/25 01:48:10;;;;;;;20.80;9.53;;;;;;;19.00;57.11;98812.74;125435;1096;103041;-78
2021/07/25 01:50:39;;;;;;;21.47;10.23;;;;;;;18.99;57.01;98812.92;125418;1096;102922;-78
2021/07/25 01:53:07;;;;;;;21.77;10.70;;;;;;;18.96;57.00;98813.27;125435;1096;102946;-78
2021/07/25 01:55:35;;;;;;;20.23;9.10;;;;;;;18.93;57.07;98817.13;125451;1096;102957;-78
2021/07/25 01:58:03;;;;;;;19.63;9.90;;;;;;;18.90;56.86;98809.39;125446;1096;103025;-78
2021/07/25 02:00:32;;;;;;;17.60;8.87;;;;;;;18.90;56.96;98806.70;125419;1096;103036;-78
2021/07/25 02:03:01;;;;;;;18.73;9.10;;;;;;;18.89;56.81;98802.31;125437;1096;103002;-78
2021/07/25 02:05:30;;;;;;;19.43;9.20;;;;;;;18.86;57.13;98811.56;125343;1095;102916;-78
2021/07/25 02:07:58;;;;;;;19.20;9.67;;;;;;;18.85;57.24;98804.50;125354;1096;103054;-79
2021/07/25 02:10:26;;;;;;;19.70;9.50;;;;;;;18.83;57.10;98816.47;125390;1096;103002;-80
2021/07/25 02:12:56;;;;;;;16.57;8.60;;;;;;;18.81;57.17;98819.32;125408;1096;103027;-80
2021/07/25 02:15:25;;;;;;;20.30;9.90;;;;;;;18.80;57.18;98814.12;125504;1096;103036;-81
2021/07/25 02:17:54;;;;;;;19.35;9.85;;;;;;;18.76;57.59;98813.60;125347;1097;102932;-81
2021/07/25 02:20:22;;;;;;;19.63;9.33;;;;;;;18.73;57.75;98817.49;125427;1096;103010;-81
2021/07/25 02:22:50;;;;;;;22.33;10.27;;;;;;;18.72;57.85;98813.11;125432;1096;103016;-82
2021/07/25 02:25:19;;;;;;;18.10;8.97;;;;;;;18.70;57.33;98817.00;125351;1096;103096;-80
2021/07/25 02:27:47;;;;;;;21.23;10.50;;;;;;;18.67;57.58;98822.73;125390;1096;102928;-77
2021/07/25 02:30:16;;;;;;;19.27;9.27;;;;;;;18.64;57.58;98814.98;125422;1097;102943;-78
2021/07/25 02:32:46;;;;;;;18.47;9.57;;;;;;;18.62;57.72;98817.01;125447;1095;103074;-77
2021/07/25 02:35:14;;;;;;;26.03;10.27;;;;;;;18.57;57.95;98821.05;125430;1095;103017;-77
2021/07/25 02:37:43;;;;;;;19.00;9.53;;;;;;;18.53;57.99;98817.01;125405;1096;103023;-76
2021/07/25 02:40:12;;;;;;;19.63;9.90;;;;;;;18.49;58.07;98815.66;125433;1097;102933;-77
2021/07/25 02:42:40;;;;;;;19.27;9.63;;;;;;;18.50;57.87;98827.29;125440;1096;103031;-76
2021/07/25 02:45:10;;;;;;;18.67;9.17;;;;;;;18.49;58.19;98830.98;125427;1096;102940;-77
2021/07/25 02:47:38;;;;;;;22.40;9.67;;;;;;;18.47;58.35;98841.09;125466;1096;103188;-77
2021/07/25 02:50:07;;;;;;;20.07;9.27;;;;;;;18.45;57.93;98836.71;125400;1095;103127;-77
2021/07/25 02:52:36;;;;;;;21.25;10.30;;;;;;;18.42;58.45;98828.11;125439;1096;103016;-79
2021/07/25 02:55:06;;;;;;;20.30;9.63;;;;;;;18.40;58.36;98843.59;125425;1096;103018;-78
2021/07/25 02:57:34;;;;;;;23.10;11.50;;;;;;;18.39;58.55;98841.91;125438;1096;103189;-78
2021/07/25 03:00:05;;;;;;;20.57;9.50;;;;;;;18.37;58.59;98839.39;125456;1096;102998;-77
2021/07/25 03:02:33;;;;;;;18.45;9.55;;;;;;;18.40;58.34;98840.90;125440;1096;103048;-77
2021/07/25 03:05:04;;;;;;;22.83;9.63;;;;;;;18.39;58.65;98847.30;125494;1096;102977;-76
2021/07/25 03:07:32;;;;;;;20.03;8.60;;;;;;;18.39;58.82;98840.07;125459;1096;102947;-76
2021/07/25 03:10:01;;;;;;;19.13;10.00;;;;;;;18.41;58.90;98847.97;125423;1095;103431;-76
2021/07/25 03:12:29;;;;;;;21.27;9.60;;;;;;;18.39;58.90;98837.38;125438;1096;103001;-76
2021/07/25 03:14:58;;;;;;;18.93;9.57;;;;;;;18.41;58.62;98842.58;125426;1096;103201;-76
2021/07/25 03:17:26;;;;;;;19.60;8.97;;;;;;;18.41;58.79;98842.58;125456;1096;102988;-77
2021/07/25 03:19:55;;;;;;;19.40;8.97;;;;;;;18.41;59.03;98847.97;125443;1097;102949;-77
2021/07/25 03:22:23;;;;;;;18.27;9.10;;;;;;;18.42;59.19;98845.13;125479;1096;102914;-77
2021/07/25 03:24:53;;;;;;;18.73;9.13;;;;;;;18.44;59.19;98848.48;125457;1096;103071;-77
2021/07/25 03:27:21;;;;;;;18.10;8.60;;;;;;;18.44;58.88;98847.63;125403;1100;102978;-79
2021/07/25 03:29:50;;;;;;;17.40;8.17;;;;;;;18.48;58.92;98834.70;125482;1096;102932;-78
2021/07/25 03:32:19;;;;;;;19.20;10.13;;;;;;;18.48;58.83;98845.47;125429;1096;103038;-78
2021/07/25 03:34:48;;;;;;;19.07;9.50;;;;;;;18.51;59.37;98848.66;125494;1097;102942;-77
2021/07/25 03:37:18;;;;;;;18.13;9.00;;;;;;;18.56;58.86;98842.75;125397;1096;103008;-78
2021/07/25 03:39:50;;;;;;;21.40;9.97;;;;;;;18.57;58.94;98836.34;125416;1096;102938;-78
2021/07/25 03:42:19;;;;;;;19.50;9.80;;;;;;;18.58;59.08;98848.80;125534;1100;102948;-77
2021/07/25 03:44:48;;;;;;;18.43;9.10;;;;;;;18.60;59.12;98839.56;125476;1100;103004;-77
2021/07/25 03:47:17;;;;;;;18.03;8.67;;;;;;;18.64;59.33;98840.05;125447;1096;102917;-78
2021/07/25 03:49:46;;;;;;;19.17;8.97;;;;;;;18.64;59.36;98847.31;125444;1096;103057;-78
2021/07/25 03:52:14;;;;;;;21.43;9.93;;;;;;;18.56;59.14;98859.77;125431;1096;102955;-78
2021/07/25 03:54:43;;;;;;;19.30;9.77;;;;;;;18.45;59.46;98858.25;125484;1096;102998;-78
2021/07/25 03:57:14;;;;;;;18.03;8.63;;;;;;;18.36;59.17;98864.64;125437;1096;103071;-78
2021/07/25 03:59:43;;;;;;;19.83;9.13;;;;;;;18.28;59.24;98865.48;125468;1096;103026;-78
2021/07/25 04:02:12;;;;;;;21.33;9.40;;;;;;;18.26;59.56;98863.95;125423;1096;103271;-78
2021/07/25 04:04:42;;;;;;;19.83;9.47;;;;;;;18.27;59.29;98865.63;125417;1096;103036;-78
2021/07/25 04:07:11;;;;;;;19.27;9.03;;;;;;;18.26;59.25;98864.80;125491;1096;103099;-78
2021/07/25 04:09:40;;;;;;;18.27;8.43;;;;;;;18.25;59.63;98878.41;125487;1096;103040;-77
2021/07/25 04:12:08;;;;;;;20.57;9.20;;;;;;;18.20;59.53;98881.61;125461;1096;102924;-77
2021/07/25 04:14:37;;;;;;;19.30;9.20;;;;;;;18.14;59.50;98877.72;125427;1096;103102;-79
2021/07/25 04:17:07;;;;;;;24.03;10.43;;;;;;;18.10;59.47;98876.39;125398;1097;103019;-80
2021/07/25 04:19:35;;;;;;;22.43;10.20;;;;;;;18.08;59.97;98870.33;125454;1095;102929;-81
2021/07/25 04:22:03;;;;;;;18.33;9.50;;;;;;;18.07;59.98;98863.26;125432;1096;102921;-80
2021/07/25 04:24:32;;;;;;;20.83;9.70;;;;;;;18.08;59.66;98870.33;125441;1096;103512;-80
2021/07/25 04:27:01;;;;;;;26.40;17.27;;;;;;;18.14;59.72;98871.50;125445;1096;103026;-80
2021/07/25 04:29:30;;;;;;;21.90;11.10;;;;;;;18.22;60.15;98865.28;125397;1097;103041;-83
2021/07/25 04:31:58;;;;;;;22.40;9.87;;;;;;;18.27;60.26;98869.18;125435;1096;103012;-73
2021/07/25 04:34:27;;;;;;;19.40;9.70;;;;;;;18.33;60.33;98864.97;125437;1096;103093;-75
2021/07/25 04:36:58;;;;;;;20.20;9.63;;;;;;;18.37;60.39;98866.32;125443;1097;103071;-75
2021/07/25 04:39:27;;;;;;;32.90;10.00;;;;;;;18.39;60.30;98864.30;125417;1097;102980;-74
2021/07/25 04:41:58;;;;;;;19.63;9.97;;;;;;;18.43;59.92;98867.49;125400;1096;103063;-74
2021/07/25 04:44:31;;;;;;;20.87;9.23;;;;;;;18.48;60.51;98861.63;125479;1097;102916;-74
2021/07/25 04:47:04;;;;;;;18.93;8.98;;;;;;;18.52;59.98;98862.97;125453;1097;102934;-74
2021/07/25 04:49:37;;;;;;;;;;;;;;;18.58;60.37;98859.58;125504;1096;103098;-75
2021/07/25 04:52:11;;;;;;;18.90;9.60;;;;;;;18.64;60.60;98855.39;125456;1096;102914;-75
2021/07/25 04:54:42;;;;;;;20.60;9.17;;;;;;;18.71;60.35;98857.23;125462;1096;103067;-73
2021/07/25 04:57:17;;;;;;;18.20;9.27;;;;;;;18.77;60.72;98861.09;125444;1096;102966;-73
2021/07/25 04:59:51;;;;;;;18.53;9.73;;;;;;;18.85;60.82;98858.39;125463;1096;103383;-74
2021/07/25 05:02:23;;;;;;;19.07;9.03;;;;;;;18.94;60.55;98866.47;125500;1096;102919;-74
2021/07/25 05:04:53;;;;;;;17.93;9.00;;;;;;;19.02;60.49;98861.92;125433;1096;103194;-73
2021/07/25 05:07:22;;;;;;;18.73;9.57;;;;;;;19.11;60.78;98864.61;125376;1097;103104;-74
2021/07/25 05:09:50;;;;;;;18.13;9.20;;;;;;;19.21;60.53;98862.57;125461;1097;102943;-75
2021/07/25 05:12:29;;;;;;;18.20;8.85;;;;;;;19.31;60.66;98860.53;125393;1097;103155;-76
2021/07/25 05:15:10;;;;;;;18.27;8.97;;;;;;;19.41;60.93;98857.63;125415;1100;103000;-75
2021/07/25 05:17:49;;;;;;;20.23;8.27;;;;;;;19.54;60.56;98862.45;125426;1097;102986;-75
2021/07/25 05:20:19;;;;;;;17.17;8.23;;;;;;;19.68;60.81;98865.44;125400;1099;102922;-74
2021/07/25 05:23:10;;;;;;;17.67;8.57;;;;;;;19.81;60.94;98865.70;125442;1096;103046;-73
2021/07/25 05:25:40;;;;;;;15.63;7.47;;;;;;;19.96;60.76;98859.59;125449;1096;103013;-73
2021/07/25 05:28:09;;;;;;;15.97;7.40;;;;;;;20.05;60.81;98870.16;125434;1096;103077;-73
2021/07/25 05:30:40;;;;;;;16.57;8.07;;;;;;;20.16;60.58;98865.38;125448;1097;103034;-74
2021/07/25 05:33:10;;;;;;;16.67;7.47;;;;;;;20.24;60.53;98859.92;125433;1096;103231;-74
2021/07/25 05:35:39;;;;;;;16.60;8.05;;;;;;;20.32;60.62;98862.57;125453;1097;102935;-76
2021/07/25 05:38:07;;;;;;;17.65;8.50;;;;;;;20.40;60.52;98856.26;125411;1097;103377;-72
2021/07/25 05:40:36;;;;;;;18.33;7.70;;;;;;;20.48;61.04;98849.94;125458;1097;103005;-74
2021/07/25 05:43:05;;;;;;;16.50;7.33;;;;;;;20.52;60.39;98852.12;125436;1095;103007;-72
2021/07/25 05:45:33;;;;;;;18.57;7.90;;;;;;;20.60;60.46;98859.30;125398;1097;103056;-72
2021/07/25 05:48:02;;;;;;;18.93;8.10;;;;;;;20.67;60.31;98860.27;125437;1097;102941;-73
2021/07/25 05:50:30;;;;;;;17.13;7.67;;;;;;;20.75;60.00;98867.45;125452;1095;102957;-74
2021/07/25 05:52:59;;;;;;;16.10;7.53;;;;;;;20.81;60.30;98855.94;125452;1096;103068;-75
2021/07/25 05:55:33;;;;;;;14.97;7.30;;;;;;;20.88;60.11;98863.32;125439;1096;103486;-76
2021/07/25 05:58:02;;;;;;;19.27;8.40;;;;;;;20.94;60.18;98868.00;125430;1097;103093;-75
2021/07/25 06:00:30;;;;;;;15.07;7.60;;;;;;;21.02;59.90;98864.36;125458;1095;103444;-76
2021/07/25 06:03:01;;;;;;;17.90;7.87;;;;;;;21.07;60.35;98870.89;125456;1097;103087;-75
2021/07/25 06:05:36;;;;;;;15.13;7.50;;;;;;;21.14;59.75;98867.45;125464;1096;103065;-74
2021/07/25 06:08:07;;;;;;;16.50;8.00;;;;;;;21.23;59.96;98871.75;125472;1096;103108;-73
2021/07/25 06:10:40;;;;;;;16.50;7.43;;;;;;;21.30;59.97;98861.88;125439;1096;103038;-72
2021/07/25 06:13:09;;;;;;;16.33;7.47;;;;;;;21.38;59.63;98867.20;125469;1096;103007;-75
2021/07/25 06:15:38;;;;;;;16.97;7.50;;;;;;;21.47;59.75;98865.23;125447;1096;103022;-72
2021/07/25 06:18:07;;;;;;;17.37;7.73;;;;;;;21.59;59.92;98872.88;125490;1096;103010;-71
2021/07/25 06:20:35;;;;;;;17.33;7.67;;;;;;;21.72;59.79;98864.94;125498;1096;103010;-74
2021/07/25 06:23:04;;;;;;;15.57;7.47;;;;;;;21.78;59.85;98866.06;125501;1096;103008;-73
2021/07/25 06:25:33;;;;;;;18.40;7.75;;;;;;;21.83;59.48;98867.16;125576;1096;102945;-72
2021/07/25 06:28:04;;;;;;;17.77;7.90;;;;;;;21.92;59.96;98875.19;125415;1096;103012;-72
2021/07/25 06:30:34;;;;;;;15.90;7.70;;;;;;;21.99;59.59;98871.52;125452;1097;102919;-71
2021/07/25 06:33:05;;;;;;;15.40;7.93;;;;;;;22.06;59.44;98866.16;125489;1096;103020;-73
2021/07/25 06:35:43;;;;;;;15.70;7.50;;;;;;;22.16;59.75;98868.58;125445;1096;103045;-72
2021/07/25 06:38:14;;;;;;;16.90;8.13;;;;;;;22.24;59.35;98863.02;125439;1095;103041;-71
2021/07/25 06:40:48;;;;;;;16.87;7.87;;;;;;;22.35;59.38;98863.55;125419;1096;103018;-69
2021/07/25 06:43:18;;;;;;;17.33;8.43;;;;;;;22.44;59.29;98870.55;125450;1096;103451;-73
2021/07/25 06:45:47;;;;;;;16.57;7.33;;;;;;;22.53;59.46;98869.40;125440;1097;103020;-72
2021/07/25 06:48:27;;;;;;;16.47;7.13;;;;;;;22.62;58.87;98861.14;125396;1096;103074;-70
2021/07/25 06:50:58;;;;;;;14.97;6.93;;;;;;;22.68;59.02;98869.31;125394;1097;103031;-70
2021/07/25 06:53:29;;;;;;;15.10;7.30;;;;;;;22.73;59.39;98858.73;125434;1096;102952;-71
2021/07/25 06:56:01;;;;;;;15.67;7.40;;;;;;;22.81;59.32;98865.88;125442;1096;102920;-72
2021/07/25 06:58:32;;;;;;;17.78;8.73;;;;;;;22.87;58.75;98862.38;125507;1096;102946;-70
2021/07/25 07:01:00;;;;;;;17.00;7.87;;;;;;;22.98;59.04;98866.41;125385;1097;103006;-73
2021/07/25 07:03:30;;;;;;;16.73;8.00;;;;;;;23.09;58.55;98862.31;125403;1096;103428;-72
2021/07/25 07:05:58;;;;;;;15.50;7.23;;;;;;;23.23;59.02;98865.16;125412;1096;103033;-73
2021/07/25 07:08:27;;;;;;;15.97;8.07;;;;;;;23.73;58.07;98863.13;125490;1096;102921;-70
2021/07/25 07:10:55;;;;;;;16.33;7.63;;;;;;;24.95;57.61;98866.93;125417;1096;102917;-72
2021/07/25 07:13:23;;;;;;;14.60;7.60;;;;;;;26.00;56.96;98862.47;125491;1095;102948;-71
2021/07/25 07:15:54;;;;;;;16.20;7.27;;;;;;;26.78;57.11;98863.24;125454;1097;103004;-72
2021/07/25 07:18:22;;;;;;;14.70;7.23;;;;;;;26.67;57.75;98863.95;125402;1096;103051;-72
2021/07/25 07:20:51;;;;;;;15.90;7.63;;;;;;;26.70;57.62;98858.88;125445;1095;103029;-73
2021/07/25 07:23:24;;;;;;;16.13;7.30;;;;;;;27.70;56.30;98858.16;125462;1096;102952;-77
2021/07/25 07:25:54;;;;;;;15.40;7.10;;;;;;;27.77;56.17;98865.20;125400;1095;102921;-73
2021/07/25 07:28:23;;;;;;;13.70;6.93;;;;;;;28.08;56.87;98857.88;125519;1096;102967;-72
2021/07/25 07:30:51;;;;;;;13.70;6.60;;;;;;;28.94;55.55;98867.73;125397;1096;103422;-72
2021/07/25 07:33:22;;;;;;;13.57;6.70;;;;;;;29.96;55.45;98864.74;125438;1095;103004;-78
2021/07/25 07:35:50;;;;;;;12.07;6.83;;;;;;;30.89;55.66;98855.45;125403;1095;103071;-77
2021/07/25 07:38:21;;;;;;;15.23;6.80;;;;;;;32.03;55.34;98867.17;125360;1096;102948;-77
2021/07/25 07:40:50;;;;;;;12.23;6.67;;;;;;;33.03;54.43;98854.06;125477;1096;102919;-83
2021/07/25 07:43:20;;;;;;;12.27;6.30;;;;;;;33.29;53.76;98863.33;125493;1097;103034;-76
2021/07/25 07:45:51;;;;;;;13.53;6.70;;;;;;;32.89;53.52;98854.52;125467;1096;103030;-80
2021/07/25 07:48:23;;;;;;;13.03;6.80;;;;;;;33.23;53.01;98861.63;125592;1096;102922;-80
2021/07/25 07:50:51;;;;;;;14.30;6.97;;;;;;;33.54;52.70;98857.15;125557;1096;103192;-78
2021/07/25 07:53:20;;;;;;;10.53;6.27;;;;;;;33.92;52.00;98867.25;125405;1097;103065;-78
2021/07/25 07:55:49;;;;;;;11.70;6.17;;;;;;;34.21;51.55;98862.08;125378;1096;103102;-79
2021/07/25 07:58:17;;;;;;;10.73;5.90;;;;;;;34.44;51.09;98857.97;125372;1096;102910;-74
2021/07/25 08:00:45;;;;;;;13.57;6.43;;;;;;;34.65;51.04;98860.76;125438;1095;102922;-75
2021/07/25 08:03:14;;;;;;;12.27;5.97;;;;;;;34.99;50.16;98865.73;125407;1096;103063;-78
2021/07/25 08:05:43;;;;;;;14.90;6.33;;;;;;;35.14;49.13;98864.88;125407;1097;103077;-74
2021/07/25 08:08:11;;;;;;;13.73;6.17;;;;;;;35.35;49.44;98864.83;125470;1096;102999;-79
2021/07/25 08:10:39;;;;;;;12.60;6.07;;;;;;;35.49;48.55;98873.39;125452;1096;102943;-88
2021/07/25 08:13:10;;;;;;;11.80;6.53;;;;;;;35.66;48.94;98867.52;125559;1097;102916;-76
2021/07/25 08:15:39;;;;;;;9.70;5.77;;;;;;;35.76;47.50;98861.10;125421;1094;102916;-78
2021/07/25 08:18:08;;;;;;;14.10;6.40;;;;;;;35.93;47.64;98865.45;125397;1100;103119;-74
2021/07/25 08:20:36;;;;;;;12.17;6.30;;;;;;;36.76;47.93;98862.98;125426;1096;102921;-79
2021/07/25 08:23:05;;;;;;;11.93;5.97;;;;;;;37.26;46.86;98846.18;125473;1096;103124;-84
2021/07/25 08:25:33;;;;;;;10.83;5.93;;;;;;;37.43;45.88;98854.02;125420;1096;104484;-75
2021/07/25 08:28:02;;;;;;;10.70;5.47;;;;;;;37.83;45.87;98867.69;125406;1096;103195;-76
2021/07/25 08:30:32;;;;;;;10.20;5.77;;;;;;;38.20;45.30;98854.17;125465;1096;103156;-76
2021/07/25 08:33:01;;;;;;;8.50;5.30;;;;;;;38.56;44.64;98853.63;125441;1096;103001;-79
2021/07/25 08:35:30;;;;;;;9.70;5.60;;;;;;;38.28;43.51;98859.86;125438;1096;102915;-77
2021/07/25 08:37:59;;;;;;;11.60;5.73;;;;;;;37.85;42.75;98859.89;125409;1096;103128;-78
2021/07/25 08:40:31;;;;;;;6.67;4.73;;;;;;;37.75;42.84;98854.47;125442;1096;103167;-74
2021/07/25 08:43:09;;;;;;;8.67;5.20;;;;;;;37.93;42.41;98855.65;125472;1096;102927;-74
2021/07/25 08:45:44;;;;;;;10.73;5.53;;;;;;;38.33;42.28;98863.69;125426;1096;102941;-73
2021/07/25 08:48:17;;;;;;;10.50;5.53;;;;;;;38.89;41.93;98856.42;125472;1097;102999;-74
2021/07/25 08:51:06;;;;;;;12.23;5.33;;;;;;;38.91;40.83;98859.72;125413;1096;102983;-74
2021/07/25 08:53:36;;;;;;;9.20;5.57;;;;;;;38.83;41.01;98864.01;125394;1096;102927;-76
2021/07/25 08:56:05;;;;;;;14.03;5.40;;;;;;;38.90;40.24;98863.63;125485;1096;102923;-78
2021/07/25 08:58:43;;;;;;;10.40;5.60;;;;;;;38.77;39.21;98856.05;125420;1100;103549;-76
2021/07/25 09:01:14;;;;;;;11.10;5.53;;;;;;;38.65;39.26;98860.15;125451;1096;102998;-75
2021/07/25 09:03:44;;;;;;;12.10;6.00;;;;;;;39.08;39.13;98858.32;125484;1097;103000;-76
2021/07/25 09:06:13;;;;;;;12.60;5.77;;;;;;;39.12;38.18;98860.17;125468;1095;103076;-76
2021/07/25 09:08:43;;;;;;;12.37;6.73;;;;;;;38.60;37.86;98863.02;125421;1097;103084;-78
2021/07/25 09:11:14;;;;;;;8.30;5.30;;;;;;;38.13;37.29;98857.30;125442;1096;102932;-79
2021/07/25 09:13:45;;;;;;;14.47;7.17;;;;;;;37.56;36.60;98860.83;125527;1096;102919;-80
2021/07/25 09:16:16;;;;;;;13.97;6.97;;;;;;;37.41;36.28;98855.42;125467;1096;103018;-79
2021/07/25 09:18:45;;;;;;;16.23;6.97;;;;;;;37.29;36.33;98853.91;125573;1095;102922;-78
2021/07/25 09:21:37;;;;;;;11.97;5.40;;;;;;;37.77;36.15;98855.84;125465;1095;103058;-77
2021/07/25 09:24:19;;;;;;;8.70;5.63;;;;;;;37.78;35.43;98856.66;125437;1096;102922;-77
2021/07/25 09:27:05;;;;;;;10.10;5.80;;;;;;;37.19;34.60;98863.15;125487;1096;103403;-78
2021/07/25 09:29:36;;;;;;;10.10;5.33;;;;;;;37.16;34.99;98857.38;125480;1096;102977;-82
2021/07/25 09:32:13;;;;;;;11.03;5.08;;;;;;;37.03;34.19;98847.81;125561;1096;103007;-78
2021/07/25 09:34:49;;;;;;;8.60;5.07;;;;;;;36.59;34.08;98855.09;125459;1096;103065;-74
2021/07/25 09:37:22;;;;;;;11.13;5.50;;;;;;;36.81;34.37;98851.86;125464;1096;102967;-70
2021/07/25 09:39:54;;;;;;;9.80;5.50;;;;;;;37.22;34.44;98845.11;125485;1096;103041;-72
2021/07/25 09:42:31;;;;;;;9.73;5.08;;;;;;;37.54;33.98;98852.79;125443;1096;103050;-70
2021/07/25 09:45:01;;;;;;;9.77;5.07;;;;;;;37.83;33.76;98851.05;125392;1097;103065;-70
2021/07/25 09:47:33;;;;;;;8.03;4.77;;;;;;;38.03;33.97;98854.70;125439;1096;102940;-69
2021/07/25 09:50:05;;;;;;;11.60;5.57;;;;;;;38.34;33.53;98852.27;125452;1097;103012;-69
2021/07/25 09:52:38;;;;;;;8.23;5.10;;;;;;;38.47;32.97;98852.66;125403;1095;102981;-70
2021/07/25 09:55:08;;;;;;;8.80;5.13;;;;;;;38.16;32.52;98850.34;125451;1097;103074;-69
2021/07/25 09:57:37;;;;;;;10.63;4.87;;;;;;;37.97;31.97;98856.70;125424;1096;102943;-69
2021/07/25 10:00:13;;;;;;;8.90;5.50;;;;;;;37.82;32.47;98847.45;125454;1096;102911;-70
2021/07/25 10:02:45;;;;;;;9.07;5.20;;;;;;;37.66;31.87;98848.77;125458;1096;103015;-70
2021/07/25 10:05:16;;;;;;;9.90;5.10;;;;;;;37.35;31.38;98844.39;125452;1095;102938;-68
2021/07/25 10:07:49;;;;;;;10.98;6.05;;;;;;;36.39;31.29;98842.20;125428;1096;103013;-69
2021/07/25 10:10:19;;;;;;;11.30;5.40;;;;;;;36.12;31.37;98851.81;125484;1096;103055;-70
2021/07/25 10:12:47;;;;;;;15.10;5.87;;;;;;;35.91;31.84;98851.89;125467;1097;102940;-70
2021/07/25 10:15:18;;;;;;;9.23;5.57;;;;;;;35.64;30.68;98853.14;125435;1096;102976;-72
2021/07/25 10:17:47;;;;;;;10.37;5.53;;;;;;;35.13;30.58;98849.39;125474;1096;103036;-70
2021/07/25 10:20:16;;;;;;;8.63;5.43;;;;;;;34.85;30.63;98853.55;125482;1095;103433;-69
2021/07/25 10:22:51;;;;;;;8.20;5.03;;;;;;;34.69;30.31;98852.73;125461;1096;103116;-70
2021/07/25 10:25:23;;;;;;;10.40;5.63;;;;;;;34.22;30.79;98843.58;125488;1096;102933;-69
2021/07/25 10:27:57;;;;;;;11.65;5.30;;;;;;;33.84;30.73;98844.56;125461;1095;103565;-69
2021/07/25 10:30:27;;;;;;;11.37;5.73;;;;;;;33.43;29.97;98840.80;125521;1096;103004;-69
2021/07/25 10:32:56;;;;;;;9.77;5.57;;;;;;;33.08;29.95;98837.58;125465;1096;102925;-70
2021/07/25 10:35:25;;;;;;;11.00;5.50;;;;;;;32.75;29.91;98840.34;125421;1096;102942;-71
2021/07/25 10:37:55;;;;;;;10.03;5.13;;;;;;;32.60;29.96;98835.55;125443;1094;102919;-84
2021/07/25 10:40:24;;;;;;;10.13;5.43;;;;;;;32.31;29.54;98835.86;125388;1097;103171;-82
2021/07/25 10:42:52;;;;;;;12.07;6.10;;;;;;;32.04;29.79;98836.64;125453;1097;102815;-80
2021/07/25 10:45:24;;;;;;;10.50;5.20;;;;;;;31.97;29.58;98830.55;125426;1095;102923;-80
2021/07/25 10:47:52;;;;;;;10.40;5.60;;;;;;;31.85;29.85;98830.66;125418;1096;103383;-82
2021/07/25 10:50:21;;;;;;;13.13;6.00;;;;;;;31.82;29.62;98831.18;125446;1095;103021;-80
2021/07/25 10:52:54;;;;;;;11.17;5.40;;;;;;;31.81;29.92;98832.27;125385;1096;103071;-78
2021/07/25 10:55:42;;;;;;;12.67;6.17;;;;;;;31.84;29.57;98836.44;125478;1097;102940;-78
2021/07/25 10:58:11;;;;;;;10.10;5.50;;;;;;;31.76;30.09;98834.98;125461;1096;103030;-78
2021/07/25 11:00:53;;;;;;;11.80;5.80;;;;;;;31.65;29.97;98824.92;125422;1096;103072;-80
2021/07/25 11:03:25;;;;;;;;;;;;;;;31.58;30.17;98833.37;125482;1096;103026;-77
2021/07/25 11:05:59;;;;;;;12.47;6.00;;;;;;;31.53;30.10;98836.86;125453;1096;102943;-82
2021/07/25 11:08:46;;;;;;;12.63;5.67;;;;;;;31.52;29.92;98832.45;125594;1097;103026;-84
2021/07/25 11:11:35;;;;;;;11.60;6.17;;;;;;;31.43;29.96;98826.58;125442;1097;102948;-82
2021/07/25 11:14:06;;;;;;;13.10;5.97;;;;;;;31.37;30.19;98835.02;125327;1096;102978;-75
2021/07/25 11:16:36;;;;;;;12.50;6.33;;;;;;;31.34;30.00;98830.84;125484;1096;103004;-81
2021/07/25 11:19:08;;;;;;;13.27;6.40;;;;;;;31.34;30.16;98830.84;125469;1097;102994;-82
2021/07/25 11:21:40;;;;;;;12.95;5.85;;;;;;;31.29;30.02;98833.52;125493;1097;103032;-75
2021/07/25 11:24:22;;;;;;;10.47;5.80;;;;;;;31.12;30.16;98828.05;125497;1097;103007;-76
2021/07/25 11:26:58;;;;;;;13.23;5.98;;;;;;;31.00;30.13;98830.90;125481;1096;103004;-77